Time;durP1;ratioP1;P1;durP2;ratioP2;P2;SDS_P1;SDS_P2;PMS_P1;PMS_P2;Temp;Humidity;BMP_temperature;BMP_pressure;BME280_temperature;BME280_humidity;BME280_pressure;Samples;Min_cycle;Max_cycle;Signal;HPM_P1;HPM_P2
2022/01/30 00:01:23;;;;;;;;;;;5.90;99.90;;;;;;5000359;28;20404;-84
2022/01/30 00:03:48;;;;;;;;;;;6.00;99.90;;;;;;4978878;28;19938;-84
2022/01/30 00:06:14;;;;;;;;;;;6.10;99.90;;;;;;4978743;28;19925;-84
2022/01/30 00:08:39;;;;;;;;;;;6.20;99.90;;;;;;4995307;28;20408;-84
2022/01/30 00:11:13;;;;;;;;;;;6.30;99.90;;;;;;4978386;28;20385;-84
2022/01/30 00:13:38;;;;;;;;;;;6.30;99.90;;;;;;4976435;28;19925;-84
2022/01/30 00:16:07;;;;;;;;;;;6.20;99.90;;;;;;4985380;28;19933;-84
2022/01/30 00:23:48;;;;;;;;;;;6.10;99.90;;;;;;5033814;28;19924;-84
2022/01/30 00:26:16;;;;;;;;;;;6.10;99.90;;;;;;5074780;28;19925;-84
2022/01/30 00:28:42;;;;;;;;;;;6.70;99.90;;;;;;5076308;28;19925;-84
2022/01/30 00:31:08;;;;;;;;;;;6.10;99.90;;;;;;5077723;28;19939;-84
2022/01/30 00:33:34;;;;;;;;;;;6.70;99.90;;;;;;5095398;28;19930;-84
2022/01/30 00:35:59;;;;;;;;;;;6.00;99.90;;;;;;5095163;28;20388;-84
2022/01/30 00:38:26;;;;;;;;;;;6.20;99.90;;;;;;5061385;28;19930;-84
2022/01/30 00:40:52;;;;;;;;;;;6.10;99.90;;;;;;5078332;28;19924;-83
2022/01/30 00:43:18;;;;;;;;;;;6.20;99.90;;;;;;5096399;28;19920;-84
2022/01/30 00:45:44;;;;;;;;;;;6.10;99.90;;;;;;5097552;28;19924;-84
2022/01/30 00:48:09;;;;;;;;;;;6.00;99.90;;;;;;5094549;28;19966;-84
2022/01/30 00:50:35;;;;;;;;;;;6.00;99.90;;;;;;5059511;28;20286;-84
2022/01/30 00:53:00;;;;;;;;;;;5.90;99.90;;;;;;5057231;28;19924;-84
2022/01/30 00:55:27;;;;;;;;;;;6.00;99.90;;;;;;5074233;28;20459;-84
2022/01/30 00:57:53;;;;;;;;;;;5.80;99.90;;;;;;5074164;28;19929;-84
2022/01/30 01:00:18;;;;;;;;;;;5.70;99.90;;;;;;5075466;28;20029;-84
2022/01/30 01:02:44;;;;;;;;;;;5.70;99.90;;;;;;5075383;28;20351;-84
2022/01/30 01:05:10;;;;;;;;;;;5.70;99.90;;;;;;5074148;28;19931;-84
2022/01/30 01:07:40;;;;;;;;;;;5.60;99.90;;;;;;5057325;28;19924;-84
2022/01/30 01:10:11;;;;;;;;;;;5.50;99.90;;;;;;5074112;28;20295;-84
2022/01/30 01:12:58;;;;;;;;;;;5.50;99.90;;;;;;5074033;28;19929;-84
2022/01/30 01:23:19;;;;;;;;;;;5.30;99.90;;;;;;5075340;28;19925;-84
2022/01/30 01:23:44;;;;;;;;;;;5.90;99.90;;;;;;5088082;28;19975;-84
2022/01/30 01:26:10;;;;;;;;;;;5.20;99.90;;;;;;5095236;28;20405;-84
2022/01/30 01:28:36;;;;;;;;;;;5.20;99.90;;;;;;5094201;28;19925;-84
2022/01/30 01:31:02;;;;;;;;;;;5.10;99.90;;;;;;5076907;28;19920;-84
2022/01/30 01:33:37;;;;;;;;;;;5.10;99.90;;;;;;5093849;28;19931;-84
2022/01/30 01:36:03;;;;;;;;;;;5.10;99.90;;;;;;5093662;28;19942;-84
2022/01/30 01:38:29;;;;;;;;;;;5.10;99.90;;;;;;5093625;28;20406;-84
2022/01/30 01:40:55;;;;;;;;;;;5.10;99.90;;;;;;5096389;28;19924;-84
2022/01/30 01:43:22;;;;;;;;;;;5.20;99.90;;;;;;5076958;28;19925;-84
2022/01/30 01:45:50;;;;;;;;;;;5.20;99.90;;;;;;5093912;28;19924;-84
2022/01/30 01:48:15;;;;;;;;;;;5.20;99.90;;;;;;5076748;28;20398;-84
2022/01/30 01:50:45;;;;;;;;;;;5.30;99.90;;;;;;5094850;28;19924;-84
2022/01/30 01:53:12;;;;;;;;;;;5.30;99.90;;;;;;5093757;28;19977;-84
2022/01/30 01:55:39;;;;;;;;;;;5.40;99.90;;;;;;5076779;28;19931;-84
2022/01/30 01:58:04;;;;;;;;;;;5.40;99.90;;;;;;5093825;28;19924;-84
2022/01/30 02:00:31;;;;;;;;;;;5.40;99.90;;;;;;5077837;28;19931;-84
2022/01/30 02:02:56;;;;;;;;;;;5.40;99.90;;;;;;5079238;28;19946;-84
2022/01/30 02:05:33;;;;;;;;;;;5.50;99.90;;;;;;5094749;28;19924;-84
2022/01/30 02:10:51;;;;;;;;;;;5.50;99.90;;;;;;5098581;28;19923;-84
2022/01/30 02:24:40;;;;;;;;;;;5.50;99.90;;;;;;5056257;28;19929;-84
2022/01/30 02:27:06;;;;;;;;;;;6.00;99.90;;;;;;5056129;28;19970;-84
2022/01/30 02:29:32;;;;;;;;;;;5.50;99.90;;;;;;5073635;28;19924;-84
2022/01/30 02:31:59;;;;;;;;;;;5.50;99.90;;;;;;5057727;28;19924;-83
2022/01/30 02:34:28;;;;;;;;;;;5.50;99.90;;;;;;5056430;28;19925;-84
2022/01/30 02:36:54;;;;;;;;;;;5.50;99.90;;;;;;5074041;28;19928;-84
2022/01/30 02:39:20;;;;;;;;;;;6.10;99.90;;;;;;5055625;28;19925;-84
2022/01/30 02:41:46;;;;;;;;;;;5.40;99.90;;;;;;5056194;28;19925;-84
2022/01/30 02:44:23;;;;;;;;;;;5.40;99.90;;;;;;5074426;28;19924;-84
2022/01/30 02:46:52;;;;;;;;;;;5.40;99.90;;;;;;5055897;28;19931;-84
2022/01/30 02:51:52;;;;;;;;;;;5.40;99.90;;;;;;5055801;28;20371;-84
2022/01/30 02:54:17;;;;;;;;;;;5.40;99.90;;;;;;5057983;28;19928;-84
2022/01/30 02:56:43;;;;;;;;;;;5.40;99.90;;;;;;5060821;28;19989;-84
2022/01/30 02:59:09;;;;;;;;;;;5.40;99.90;;;;;;5055944;28;19925;-84
2022/01/30 03:01:34;;;;;;;;;;;5.40;99.90;;;;;;5055606;28;19925;-84
2022/01/30 03:04:00;;;;;;;;;;;5.40;99.90;;;;;;5056011;28;19924;-84
2022/01/30 03:06:26;;;;;;;;;;;5.80;99.90;;;;;;5073809;28;19924;-84
2022/01/30 03:08:52;;;;;;;;;;;5.40;99.90;;;;;;5073976;28;20019;-84
2022/01/30 03:11:17;;;;;;;;;;;5.40;99.90;;;;;;5055173;28;19928;-84
2022/01/30 03:13:43;;;;;;;;;;;5.30;99.90;;;;;;5074077;28;19924;-84
2022/01/30 03:16:08;;;;;;;;;;;5.30;99.90;;;;;;5074958;28;19931;-84
2022/01/30 03:18:34;;;;;;;;;;;5.20;99.90;;;;;;5059632;28;19924;-84
2022/01/30 03:21:00;;;;;;;;;;;5.20;99.90;;;;;;5059342;28;19924;-84
2022/01/30 03:23:25;;;;;;;;;;;5.20;99.90;;;;;;5067260;28;19930;-84
2022/01/30 03:25:56;;;;;;;;;;;5.20;99.90;;;;;;5099928;28;19931;-84
2022/01/30 03:28:22;;;;;;;;;;;5.10;99.90;;;;;;5099639;28;19924;-84
2022/01/30 03:30:52;;;;;;;;;;;5.00;99.90;;;;;;5118164;28;20286;-84
2022/01/30 03:33:18;;;;;;;;;;;5.00;99.90;;;;;;5099147;28;19931;-84
2022/01/30 03:35:43;;;;;;;;;;;4.90;99.90;;;;;;5099264;28;20010;-84
2022/01/30 03:38:09;;;;;;;;;;;4.90;99.90;;;;;;5099346;28;19992;-84
2022/01/30 03:40:34;;;;;;;;;;;5.00;99.90;;;;;;5118069;28;20419;-84
2022/01/30 03:43:00;;;;;;;;;;;5.60;99.90;;;;;;5100223;28;19920;-84
2022/01/30 03:45:25;;;;;;;;;;;5.00;99.90;;;;;;5103620;28;20363;-84
2022/01/30 03:47:55;;;;;;;;;;;5.80;99.90;;;;;;5103764;28;20282;-83
2022/01/30 03:50:21;;;;;;;;;;;5.20;99.90;;;;;;5099777;28;19919;-84
2022/01/30 03:52:47;;;;;;;;;;;5.30;99.90;;;;;;5082578;28;20274;-84
2022/01/30 03:55:12;;;;;;;;;;;5.30;99.90;;;;;;5117821;28;20366;-84
2022/01/30 03:57:38;;;;;;;;;;;5.30;99.90;;;;;;5099098;28;19931;-84
2022/01/30 04:00:05;;;;;;;;;;;5.20;99.90;;;;;;5099475;28;19931;-84
2022/01/30 04:02:30;;;;;;;;;;;5.20;99.90;;;;;;5098904;28;20010;-84
2022/01/30 04:04:56;;;;;;;;;;;5.20;99.90;;;;;;5099542;28;20335;-84
2022/01/30 04:07:21;;;;;;;;;;;5.10;99.90;;;;;;5099598;28;19924;-84
2022/01/30 04:09:47;;;;;;;;;;;5.10;99.90;;;;;;5082740;28;19928;-84
2022/01/30 04:12:13;;;;;;;;;;;5.10;99.90;;;;;;5082142;28;19924;-84
2022/01/30 04:14:39;;;;;;;;;;;5.10;99.90;;;;;;5099396;28;20342;-84
2022/01/30 04:17:07;;;;;;;;;;;5.10;99.90;;;;;;5099379;28;19994;-84
2022/01/30 04:19:32;;;;;;;;;;;5.20;99.90;;;;;;5099603;28;19924;-84
2022/01/30 04:21:58;;;;;;;;;;;5.10;99.90;;;;;;5098764;28;19947;-84
2022/01/30 04:24:23;;;;;;;;;;;5.20;99.90;;;;;;5079361;28;20386;-84
2022/01/30 04:26:49;;;;;;;;;;;5.20;99.90;;;;;;5078345;28;20366;-83
2022/01/30 04:29:15;;;;;;;;;;;5.20;99.90;;;;;;5096687;28;20382;-83
2022/01/30 04:31:42;;;;;;;;;;;5.20;99.90;;;;;;5078405;28;20003;-84
2022/01/30 04:34:09;;;;;;;;;;;5.20;99.90;;;;;;5079009;28;19928;-84
2022/01/30 04:36:40;;;;;;;;;;;5.10;99.90;;;;;;5079190;28;19985;-84
2022/01/30 04:39:30;;;;;;;;;;;5.10;99.90;;;;;;5097067;28;19969;-83
2022/01/30 04:53:14;;;;;;;;;;;5.20;99.90;;;;;;4998386;28;19930;-84
2022/01/30 05:01:59;;;;;;;;;;;5.20;99.90;;;;;;4998003;28;19980;-84
2022/01/30 05:06:15;;;;;;;;;;;5.20;99.90;;;;;;5001593;28;19925;-84
2022/01/30 05:08:41;;;;;;;;;;;5.30;99.90;;;;;;4997450;28;20478;-83
2022/01/30 05:11:08;;;;;;;;;;;5.30;99.90;;;;;;4997823;28;19929;-83
2022/01/30 05:13:37;;;;;;;;;;;5.30;99.90;;;;;;5014709;28;19941;-83
2022/01/30 05:16:03;;;;;;;;;;;5.30;99.90;;;;;;4998205;28;20056;-84
2022/01/30 05:18:29;;;;;;;;;;;5.30;99.90;;;;;;5013973;28;20012;-84
2022/01/30 05:20:55;;;;;;;;;;;5.20;99.90;;;;;;5037369;28;19924;-84
2022/01/30 05:23:21;;;;;;;;;;;5.30;99.90;;;;;;5074102;28;19924;-84
2022/01/30 05:25:47;;;;;;;;;;;5.20;99.90;;;;;;5075791;28;19928;-84
2022/01/30 05:28:17;;;;;;;;;;;5.30;99.90;;;;;;5075594;28;19924;-84
2022/01/30 05:30:43;;;;;;;;;;;5.20;99.90;;;;;;5075696;28;19928;-83
2022/01/30 05:33:09;;;;;;;;;;;5.20;99.90;;;;;;5073473;28;19971;-84
2022/01/30 05:35:35;;;;;;;;;;;5.20;99.90;;;;;;5075063;28;19985;-84
2022/01/30 05:38:01;;;;;;;;;;;5.20;99.90;;;;;;5073448;28;20401;-84
2022/01/30 05:40:27;;;;;;;;;;;5.20;99.90;;;;;;5073988;28;20349;-84
2022/01/30 05:42:53;;;;;;;;;;;5.20;99.90;;;;;;5074587;28;19950;-84
2022/01/30 05:47:55;;;;;;;;;;;5.20;99.90;;;;;;5074080;28;19935;-84
2022/01/30 05:50:21;;;;;;;;;;;5.20;99.90;;;;;;5058062;28;20322;-84
2022/01/30 05:52:47;;;;;;;;;;;5.10;99.90;;;;;;5074160;28;20015;-84
2022/01/30 05:55:12;;;;;;;;;;;5.10;99.90;;;;;;5058292;28;20276;-84
2022/01/30 05:57:38;;;;;;;;;;;5.10;99.90;;;;;;5074133;28;19931;-83
2022/01/30 06:00:05;;;;;;;;;;;5.50;99.90;;;;;;5075900;28;19932;-83
2022/01/30 06:02:31;;;;;;;;;;;5.10;99.90;;;;;;5075750;28;20406;-84
2022/01/30 06:04:56;;;;;;;;;;;5.00;99.90;;;;;;5074267;28;20022;-84
2022/01/30 06:07:27;;;;;;;;;;;4.90;99.90;;;;;;5074691;28;20375;-84
2022/01/30 06:09:53;;;;;;;;;;;5.40;99.90;;;;;;5074276;28;20310;-83
2022/01/30 06:12:18;;;;;;;;;;;4.90;99.90;;;;;;5089781;28;19931;-84
2022/01/30 06:14:45;;;;;;;;;;;4.90;99.90;;;;;;5094254;28;19924;-83
2022/01/30 06:17:11;;;;;;;;;;;5.00;99.90;;;;;;5076775;28;20286;-84
2022/01/30 06:19:36;;;;;;;;;;;5.00;99.90;;;;;;5097544;28;19943;-83
2022/01/30 06:22:02;;;;;;;;;;;5.10;99.90;;;;;;5093077;28;19924;-84
2022/01/30 06:24:27;;;;;;;;;;;5.20;99.90;;;;;;5073634;28;19998;-84
2022/01/30 06:26:53;;;;;;;;;;;5.20;99.90;;;;;;5073764;28;19977;-83
2022/01/30 06:29:18;;;;;;;;;;;5.20;99.90;;;;;;5056872;28;19977;-83
2022/01/30 06:31:44;;;;;;;;;;;5.20;99.90;;;;;;5073383;28;19970;-84
2022/01/30 06:34:09;;;;;;;;;;;5.20;99.90;;;;;;5073060;28;19925;-84
2022/01/30 06:36:35;;;;;;;;;;;5.20;99.90;;;;;;5072731;28;20412;-84
2022/01/30 06:39:00;;;;;;;;;;;5.20;99.90;;;;;;5073385;28;19924;-83
2022/01/30 06:41:26;;;;;;;;;;;5.20;99.90;;;;;;5073293;28;19925;-84
2022/01/30 06:43:51;;;;;;;;;;;5.30;99.90;;;;;;5072921;28;19924;-84
2022/01/30 06:46:17;;;;;;;;;;;5.30;99.90;;;;;;5073367;28;20386;-84
2022/01/30 06:48:42;;;;;;;;;;;5.70;99.90;;;;;;5073329;28;20393;-84
2022/01/30 06:51:08;;;;;;;;;;;5.30;99.90;;;;;;5074741;28;20010;-84
2022/01/30 06:53:34;;;;;;;;;;;5.50;99.90;;;;;;5076921;28;20337;-84
2022/01/30 06:55:59;;;;;;;;;;;5.30;99.90;;;;;;5077057;28;20337;-84
2022/01/30 06:58:25;;;;;;;;;;;5.40;99.90;;;;;;5060257;28;20317;-84
2022/01/30 07:00:50;;;;;;;;;;;5.40;99.90;;;;;;5059925;28;19924;-83
2022/01/30 07:03:16;;;;;;;;;;;5.40;99.90;;;;;;5077001;28;20275;-84
2022/01/30 07:05:41;;;;;;;;;;;5.50;99.90;;;;;;5078410;28;19928;-84
2022/01/30 07:08:07;;;;;;;;;;;5.50;99.90;;;;;;5076752;28;19928;-83
2022/01/30 07:10:32;;;;;;;;;;;5.50;99.90;;;;;;5043548;28;20342;-84
2022/01/30 07:12:58;;;;;;;;;;;5.80;99.90;;;;;;5079697;28;19931;-84
2022/01/30 07:15:23;;;;;;;;;;;5.50;99.90;;;;;;5079779;28;20011;-84
2022/01/30 07:17:49;;;;;;;;;;;5.50;99.90;;;;;;5076975;28;20001;-83
2022/01/30 07:20:14;;;;;;;;;;;5.70;99.90;;;;;;5076577;28;19931;-84
2022/01/30 07:22:40;;;;;;;;;;;5.60;99.90;;;;;;5083211;28;19935;-84
2022/01/30 07:25:07;;;;;;;;;;;5.60;99.90;;;;;;5080035;28;19970;-83
2022/01/30 07:27:36;;;;;;;;;;;5.60;99.90;;;;;;5097187;28;20019;-84
2022/01/30 07:30:03;;;;;;;;;;;5.60;99.90;;;;;;5096461;28;19924;-84
2022/01/30 07:32:29;;;;;;;;;;;5.60;99.90;;;;;;5080329;28;19928;-83
2022/01/30 07:34:54;;;;;;;;;;;5.60;99.90;;;;;;5097105;28;19939;-84
2022/01/30 07:37:20;;;;;;;;;;;6.00;99.90;;;;;;5098406;28;19924;-84
2022/01/30 07:39:45;;;;;;;;;;;6.10;99.90;;;;;;5097939;28;20260;-84
2022/01/30 07:42:11;;;;;;;;;;;6.00;99.90;;;;;;5096595;28;19924;-84
2022/01/30 07:44:37;;;;;;;;;;;5.50;99.90;;;;;;5096545;28;20029;-84
2022/01/30 07:47:03;;;;;;;;;;;5.50;99.90;;;;;;5096276;28;19924;-84
2022/01/30 07:49:28;;;;;;;;;;;5.50;99.90;;;;;;5079705;28;19939;-84
2022/01/30 07:51:54;;;;;;;;;;;5.50;99.90;;;;;;5098702;28;20489;-83
2022/01/30 07:54:20;;;;;;;;;;;5.50;99.90;;;;;;5101607;28;20028;-84
2022/01/30 07:56:45;;;;;;;;;;;5.50;99.90;;;;;;5099342;28;20375;-84
2022/01/30 07:59:11;;;;;;;;;;;5.70;99.90;;;;;;5097319;28;19935;-83
2022/01/30 08:01:36;;;;;;;;;;;5.50;99.90;;;;;;5079366;28;19973;-84
2022/01/30 08:04:03;;;;;;;;;;;5.50;99.90;;;;;;5080697;28;19924;-84
2022/01/30 08:06:29;;;;;;;;;;;5.50;99.90;;;;;;5079596;28;19931;-84
2022/01/30 08:08:55;;;;;;;;;;;5.40;99.90;;;;;;5097410;28;19924;-84
2022/01/30 08:11:20;;;;;;;;;;;5.40;99.90;;;;;;5095575;28;19924;-84
2022/01/30 08:13:46;;;;;;;;;;;5.30;99.90;;;;;;5097844;28;20307;-84
2022/01/30 08:16:11;;;;;;;;;;;5.30;99.90;;;;;;5096080;28;19928;-84
2022/01/30 08:18:38;;;;;;;;;;;5.30;99.90;;;;;;5097876;28;19927;-84
2022/01/30 08:21:05;;;;;;;;;;;5.30;99.90;;;;;;5097604;28;19924;-84
2022/01/30 08:23:32;;;;;;;;;;;5.30;99.90;;;;;;5082866;28;19985;-84
2022/01/30 08:25:58;;;;;;;;;;;5.30;99.90;;;;;;5075685;28;19970;-84
2022/01/30 08:28:24;;;;;;;;;;;5.30;99.90;;;;;;5059075;28;19928;-84
2022/01/30 08:30:50;;;;;;;;;;;5.30;99.90;;;;;;5074972;28;19924;-84
2022/01/30 08:33:16;;;;;;;;;;;5.30;99.90;;;;;;5075216;28;20019;-84
2022/01/30 08:35:42;;;;;;;;;;;5.20;99.90;;;;;;5074725;28;19984;-84
2022/01/30 08:38:07;;;;;;;;;;;5.10;99.90;;;;;;5074808;28;19928;-85
2022/01/30 08:40:33;;;;;;;;;;;5.10;99.90;;;;;;5074886;28;19942;-84
2022/01/30 08:42:58;;;;;;;;;;;5.10;99.90;;;;;;5076461;28;19924;-84
2022/01/30 08:45:24;;;;;;;;;;;5.10;99.90;;;;;;5075415;28;20015;-84
2022/01/30 08:47:51;;;;;;;;;;;5.00;99.90;;;;;;5074759;28;20375;-84
2022/01/30 08:50:17;;;;;;;;;;;5.00;99.90;;;;;;5074655;28;19924;-84
2022/01/30 08:52:43;;;;;;;;;;;5.10;99.90;;;;;;5074467;28;19979;-84
2022/01/30 08:55:10;;;;;;;;;;;5.10;99.90;;;;;;5075779;28;19964;-84
2022/01/30 08:57:35;;;;;;;;;;;5.10;99.90;;;;;;5076245;28;19963;-84
2022/01/30 09:00:02;;;;;;;;;;;5.10;99.90;;;;;;5074503;28;19978;-84
2022/01/30 09:02:28;;;;;;;;;;;5.20;99.90;;;;;;5074720;28;19989;-84
2022/01/30 09:04:53;;;;;;;;;;;5.20;99.90;;;;;;5075309;28;20305;-84
2022/01/30 09:07:19;;;;;;;;;;;5.60;99.90;;;;;;5075029;28;20017;-84
2022/01/30 09:09:45;;;;;;;;;;;5.20;99.90;;;;;;5076367;28;20387;-84
2022/01/30 09:12:11;;;;;;;;;;;5.20;99.90;;;;;;5057930;28;19928;-84
2022/01/30 09:14:41;;;;;;;;;;;5.20;99.90;;;;;;5040677;28;20525;-84
2022/01/30 09:17:13;;;;;;;;;;;5.30;99.90;;;;;;5074321;28;19935;-84
2022/01/30 09:19:43;;;;;;;;;;;5.80;99.90;;;;;;5075867;28;19924;-84
2022/01/30 09:22:10;;;;;;;;;;;5.40;99.90;;;;;;5076825;28;20369;-84
2022/01/30 09:24:36;;;;;;;;;;;5.60;99.90;;;;;;5095560;28;19920;-84
2022/01/30 09:27:02;;;;;;;;;;;5.60;99.90;;;;;;5096320;28;19932;-84
2022/01/30 09:29:28;;;;;;;;;;;5.70;99.90;;;;;;5095883;28;19932;-84
2022/01/30 09:31:54;;;;;;;;;;;5.70;99.90;;;;;;5095706;28;19968;-84
2022/01/30 09:34:20;;;;;;;;;;;5.60;99.90;;;;;;5093996;28;20026;-84
2022/01/30 09:36:45;;;;;;;;;;;5.70;99.90;;;;;;5094385;28;20292;-84
2022/01/30 09:39:11;;;;;;;;;;;5.70;99.90;;;;;;5094626;28;19924;-84
2022/01/30 09:41:37;;;;;;;;;;;5.80;99.90;;;;;;5094092;28;20367;-84
2022/01/30 09:44:02;;;;;;;;;;;5.80;99.90;;;;;;5077366;28;19932;-84
2022/01/30 09:46:32;;;;;;;;;;;6.30;99.90;;;;;;5093927;28;20443;-84
2022/01/30 09:48:58;;;;;;;;;;;6.00;99.90;;;;;;5093911;28;19931;-84
2022/01/30 09:51:24;;;;;;;;;;;6.30;99.90;;;;;;5076616;28;19924;-84
2022/01/30 09:53:51;;;;;;;;;;;6.40;99.90;;;;;;5093779;28;19969;-84
2022/01/30 09:56:18;;;;;;;;;;;6.80;99.90;;;;;;5076955;28;19924;-84
2022/01/30 09:58:45;;;;;;;;;;;6.40;99.90;;;;;;5094889;28;19969;-84
2022/01/30 10:01:10;;;;;;;;;;;6.30;99.90;;;;;;5076399;28;20010;-84
2022/01/30 10:03:36;;;;;;;;;;;6.30;99.90;;;;;;5095043;28;19955;-84
2022/01/30 10:06:05;;;;;;;;;;;6.40;99.90;;;;;;5095050;28;19931;-84
2022/01/30 10:08:31;;;;;;;;;;;6.30;99.90;;;;;;5093560;28;20378;-84
2022/01/30 10:11:05;;;;;;;;;;;6.20;99.90;;;;;;5095928;28;19968;-84
2022/01/30 10:13:31;;;;;;;;;;;6.20;99.90;;;;;;5096973;28;19949;-84
2022/01/30 10:16:03;;;;;;;;;;;6.20;99.90;;;;;;5116137;28;20313;-84
2022/01/30 10:18:32;;;;;;;;;;;6.20;99.90;;;;;;5097367;28;20389;-84
2022/01/30 10:20:59;;;;;;;;;;;6.30;99.90;;;;;;5115261;28;19934;-83
2022/01/30 10:23:31;;;;;;;;;;;6.30;99.90;;;;;;5084259;28;20453;-84
2022/01/30 10:25:57;;;;;;;;;;;6.30;99.90;;;;;;5075545;28;19935;-84
2022/01/30 10:28:27;;;;;;;;;;;6.30;99.90;;;;;;5094650;28;19928;-85
2022/01/30 10:30:54;;;;;;;;;;;6.40;99.90;;;;;;5059862;28;19955;-85
2022/01/30 10:33:36;;;;;;;;;;;6.40;99.90;;;;;;5076199;28;20030;-85
2022/01/30 10:36:03;;;;;;;;;;;6.50;99.90;;;;;;5063984;28;20081;-84
2022/01/30 10:38:32;;;;;;;;;;;6.50;99.90;;;;;;5076287;28;19974;-85
2022/01/30 10:40:59;;;;;;;;;;;6.60;99.90;;;;;;5058938;28;19978;-85
2022/01/30 10:43:43;;;;;;;;;;;6.90;99.90;;;;;;5075838;28;19983;-85
2022/01/30 10:46:16;;;;;;;;;;;6.80;99.90;;;;;;5075691;28;19924;-85
2022/01/30 10:48:49;;;;;;;;;;;6.80;99.90;;;;;;5076028;28;19932;-85
2022/01/30 10:51:15;;;;;;;;;;;6.90;99.90;;;;;;5059223;28;19924;-85
2022/01/30 10:53:41;;;;;;;;;;;7.60;99.90;;;;;;5075919;28;19974;-85
2022/01/30 10:56:17;;;;;;;;;;;7.50;99.90;;;;;;5075888;28;19931;-85
2022/01/30 10:58:44;;;;;;;;;;;6.90;99.90;;;;;;5075429;28;19927;-85
2022/01/30 11:01:21;;;;;;;;;;;7.40;99.90;;;;;;5075542;28;20374;-85
2022/01/30 11:03:50;;;;;;;;;;;6.90;99.90;;;;;;5075272;28;19931;-85
2022/01/30 11:06:16;;;;;;;;;;;7.00;99.90;;;;;;5075708;28;19985;-85
2022/01/30 11:08:46;;;;;;;;;;;7.00;99.90;;;;;;5075330;28;20011;-85
2022/01/30 11:11:33;;;;;;;;;;;6.90;99.90;;;;;;5058939;28;19924;-85
2022/01/30 11:19:16;;;;;;;;;;;7.20;99.90;;;;;;5075495;28;19935;-85
2022/01/30 11:21:42;;;;;;;;;;;6.70;99.90;;;;;;5058730;28;19986;-85
2022/01/30 11:24:10;;;;;;;;;;;6.70;99.90;;;;;;5093810;28;19923;-85
2022/01/30 11:26:35;;;;;;;;;;;7.00;99.90;;;;;;5095666;28;19924;-85
2022/01/30 11:29:01;;;;;;;;;;;6.80;99.90;;;;;;5096243;28;19931;-85
2022/01/30 11:31:27;;;;;;;;;;;6.90;99.90;;;;;;5078874;28;20402;-85
2022/01/30 11:33:54;;;;;;;;;;;6.90;99.90;;;;;;5096194;28;19969;-85
2022/01/30 11:36:21;;;;;;;;;;;7.00;99.90;;;;;;5078809;28;19931;-85
2022/01/30 11:38:47;;;;;;;;;;;7.10;99.90;;;;;;5099212;28;19928;-85
2022/01/30 11:41:14;;;;;;;;;;;7.30;99.90;;;;;;5082500;28;19930;-85
2022/01/30 11:43:40;;;;;;;;;;;7.10;99.90;;;;;;5098970;28;20026;-85
2022/01/30 11:46:13;;;;;;;;;;;7.20;99.90;;;;;;5098988;28;19931;-85
2022/01/30 11:48:39;;;;;;;;;;;7.20;99.90;;;;;;5099084;28;19923;-85
2022/01/30 11:51:05;;;;;;;;;;;7.10;99.90;;;;;;5099227;28;19931;-85
2022/01/30 11:53:30;;;;;;;;;;;7.10;99.90;;;;;;5098681;28;19924;-85
2022/01/30 11:56:00;;;;;;;;;;;7.10;99.90;;;;;;5098706;28;19924;-85
2022/01/30 11:58:39;;;;;;;;;;;7.90;99.90;;;;;;5081789;28;19981;-85
2022/01/30 12:01:13;;;;;;;;;;;7.30;99.90;;;;;;5102174;28;19978;-85
2022/01/30 12:03:51;;;;;;;;;;;7.30;99.90;;;;;;5084944;28;20346;-84
2022/01/30 12:06:16;;;;;;;;;;;7.30;99.90;;;;;;5100473;28;19924;-84
2022/01/30 12:08:44;;;;;;;;;;;7.10;99.90;;;;;;5099278;28;20251;-85
2022/01/30 12:11:28;;;;;;;;;;;7.00;99.90;;;;;;5087125;28;19963;-83
2022/01/30 12:13:54;;;;;;;;;;;7.00;99.90;;;;;;5104048;28;19924;-84
2022/01/30 12:16:41;;;;;;;;;;;7.00;99.90;;;;;;5127788;28;19987;-83
2022/01/30 12:19:07;;;;;;;;;;;7.00;99.90;;;;;;5107215;28;20335;-83
2022/01/30 12:21:32;;;;;;;;;;;7.00;99.90;;;;;;5109553;28;19981;-82
2022/01/30 12:24:17;;;;;;;;;;;7.40;99.90;;;;;;5108080;28;19924;-83
2022/01/30 12:26:50;;;;;;;;;;;7.20;99.90;;;;;;5104079;28;20002;-83
2022/01/30 12:29:33;;;;;;;;;;;7.30;99.90;;;;;;5079436;28;19928;-84
2022/01/30 12:32:19;;;;;;;;;;;7.50;99.90;;;;;;5061815;28;19930;-85
2022/01/30 12:34:44;;;;;;;;;;;8.00;99.90;;;;;;5078164;28;20428;-85
2022/01/30 12:37:18;;;;;;;;;;;7.90;99.90;;;;;;5078089;28;19928;-85
2022/01/30 12:39:44;;;;;;;;;;;7.90;99.90;;;;;;5077891;28;19931;-85
2022/01/30 12:42:13;;;;;;;;;;;7.80;99.90;;;;;;5078046;28;19924;-85
2022/01/30 12:44:38;;;;;;;;;;;8.10;99.90;;;;;;5078254;28;20002;-85
2022/01/30 12:47:04;;;;;;;;;;;8.60;99.90;;;;;;5061695;28;20409;-85
2022/01/30 12:49:32;;;;;;;;;;;8.20;99.90;;;;;;5077235;28;20018;-84
2022/01/30 12:51:59;;;;;;;;;;;8.60;99.90;;;;;;5077884;28;19924;-85
2022/01/30 12:54:27;;;;;;;;;;;9.10;99.90;;;;;;5077783;28;19930;-85
2022/01/30 12:56:53;;;;;;;;;;;9.40;99.90;;;;;;5061046;28;19997;-85
2022/01/30 12:59:19;;;;;;;;;;;9.70;99.90;;;;;;5077708;28;19924;-85
2022/01/30 13:01:46;;;;;;;;;;;9.50;99.90;;;;;;5077934;28;20375;-85
2022/01/30 13:04:17;;;;;;;;;;;9.80;99.90;;;;;;5077986;28;19924;-85
2022/01/30 13:06:44;;;;;;;;;;;10.00;99.90;;;;;;5077867;28;19928;-85
2022/01/30 13:09:10;;;;;;;;;;;9.80;99.90;;;;;;5077267;28;20007;-85
2022/01/30 13:11:36;;;;;;;;;;;10.10;99.90;;;;;;5061047;28;20027;-85
2022/01/30 13:14:06;;;;;;;;;;;9.30;99.90;;;;;;5077794;28;20416;-85
2022/01/30 13:16:33;;;;;;;;;;;8.80;99.90;;;;;;5060847;28;19927;-85
2022/01/30 13:18:59;;;;;;;;;;;8.40;99.90;;;;;;5060659;28;20385;-85
2022/01/30 13:21:26;;;;;;;;;;;8.30;99.90;;;;;;5060631;28;19923;-85
2022/01/30 13:23:52;;;;;;;;;;;8.50;99.90;;;;;;5093356;28;20277;-85
2022/01/30 13:26:47;;;;;;;;;;;7.80;99.90;;;;;;5080781;28;19924;-85
2022/01/30 13:29:13;;;;;;;;;;;7.60;99.90;;;;;;5033048;28;19937;-84
2022/01/30 13:31:39;;;;;;;;;;;7.60;99.90;;;;;;5000054;28;20406;-85
2022/01/30 13:34:05;;;;;;;;;;;8.00;99.90;;;;;;5016425;28;19925;-85
2022/01/30 13:36:30;;;;;;;;;;;8.00;99.90;;;;;;5016670;28;19925;-84
2022/01/30 13:38:56;;;;;;;;;;;7.60;99.90;;;;;;5033696;28;19932;-85
2022/01/30 13:41:27;;;;;;;;;;;7.40;99.90;;;;;;5016949;28;19932;-84
2022/01/30 13:43:59;;;;;;;;;;;7.30;99.90;;;;;;5034174;28;19932;-85
2022/01/30 13:49:13;;;;;;;;;;;7.10;99.90;;;;;;5016263;28;19925;-85
2022/01/30 13:51:38;;;;;;;;;;;7.10;99.90;;;;;;5016100;28;19926;-84
2022/01/30 13:54:05;;;;;;;;;;;7.00;99.90;;;;;;5016120;28;20015;-84
2022/01/30 13:56:30;;;;;;;;;;;7.00;99.90;;;;;;5015955;28;19925;-84
2022/01/30 13:58:56;;;;;;;;;;;7.70;99.90;;;;;;5016345;28;19925;-84
2022/01/30 14:01:24;;;;;;;;;;;7.30;99.90;;;;;;5016177;28;19925;-85
2022/01/30 14:03:50;;;;;;;;;;;7.20;99.90;;;;;;5015671;28;19925;-85
2022/01/30 14:06:19;;;;;;;;;;;7.10;99.90;;;;;;5079674;28;19924;-84
2022/01/30 14:08:51;;;;;;;;;;;7.10;99.90;;;;;;5096600;28;20387;-84
2022/01/30 14:11:19;;;;;;;;;;;7.20;99.90;;;;;;5096894;28;20418;-84
2022/01/30 14:13:44;;;;;;;;;;;7.40;99.90;;;;;;5096100;28;19924;-84
2022/01/30 14:16:15;;;;;;;;;;;7.70;99.90;;;;;;5096019;28;19945;-84
2022/01/30 14:18:53;;;;;;;;;;;7.70;99.90;;;;;;5096359;28;19931;-84
2022/01/30 14:21:19;;;;;;;;;;;7.80;99.90;;;;;;5096714;28;20328;-84
2022/01/30 14:23:45;;;;;;;;;;;8.10;99.90;;;;;;5081291;28;19927;-84
2022/01/30 14:26:20;;;;;;;;;;;8.70;99.90;;;;;;5078527;28;20003;-84
2022/01/30 14:28:45;;;;;;;;;;;8.30;99.90;;;;;;5076263;28;19969;-84
2022/01/30 14:31:18;;;;;;;;;;;8.50;99.90;;;;;;5059737;28;19924;-84
2022/01/30 14:33:44;;;;;;;;;;;8.40;99.90;;;;;;5076139;28;19965;-85
2022/01/30 14:36:09;;;;;;;;;;;9.00;99.90;;;;;;5094471;28;19924;-84
2022/01/30 14:38:41;;;;;;;;;;;8.50;99.90;;;;;;5075825;28;19931;-84
2022/01/30 14:41:07;;;;;;;;;;;8.50;99.90;;;;;;5075925;28;19932;-84
2022/01/30 14:43:33;;;;;;;;;;;8.40;99.90;;;;;;5075497;28;19931;-85
2022/01/30 14:45:58;;;;;;;;;;;8.40;99.90;;;;;;5075883;28;19975;-84
2022/01/30 14:48:24;;;;;;;;;;;8.10;99.90;;;;;;5076140;28;19925;-85
2022/01/30 14:50:49;;;;;;;;;;;8.30;99.90;;;;;;5075599;28;19924;-84
2022/01/30 14:53:15;;;;;;;;;;;8.10;99.90;;;;;;5058890;28;19924;-85
2022/01/30 14:55:40;;;;;;;;;;;7.50;99.90;;;;;;5075684;28;20267;-84
2022/01/30 14:58:06;;;;;;;;;;;7.40;99.90;;;;;;5075939;28;20019;-84
2022/01/30 15:00:31;;;;;;;;;;;7.30;99.90;;;;;;5075398;28;20405;-84
2022/01/30 15:02:57;;;;;;;;;;;7.10;99.90;;;;;;5058943;28;19932;-84
2022/01/30 15:05:23;;;;;;;;;;;7.30;99.90;;;;;;5075690;28;19932;-84
2022/01/30 15:07:49;;;;;;;;;;;6.80;99.90;;;;;;5076466;28;19931;-84
2022/01/30 15:10:15;;;;;;;;;;;7.30;99.90;;;;;;5081103;28;19924;-83
2022/01/30 15:12:41;;;;;;;;;;;6.60;99.90;;;;;;5065293;28;19924;-83
2022/01/30 15:15:08;;;;;;;;;;;6.50;99.90;;;;;;5105046;28;19947;-84
2022/01/30 15:17:36;;;;;;;;;;;6.50;99.90;;;;;;5088473;28;19920;-83
2022/01/30 15:20:04;;;;;;;;;;;6.40;99.90;;;;;;5090055;28;19924;-84
2022/01/30 15:22:31;;;;;;;;;;;6.30;99.90;;;;;;5092194;28;19924;-83
2022/01/30 15:24:57;;;;;;;;;;;6.20;99.90;;;;;;5104295;28;19923;-85
2022/01/30 15:27:23;;;;;;;;;;;6.10;99.90;;;;;;5082865;28;19924;-84
2022/01/30 15:29:49;;;;;;;;;;;6.10;99.90;;;;;;5082354;28;19924;-85